Main page
METAR-TAF:

METAR-TAF

Airports :

Pskov Airport

Pskov, Russia

latitude: 57-47-06N, longitude: 028-23-54E, elevation: 47 m

Current weather observation

The report was made 24 minutes ago, at 03:00 UTC
Wind 6 kt from the South
Temperature 16°C
Humidity 94%
Pressure 1013 hPa
Visibility: 5000 m

METAR: ULOO 200300Z AUTO 18003MPS 5000 // ///053/// 16/15 Q1013 RMK QFE755

Time: 06:24 (03:24 UTC)

Forecast

The report was made 16 hours and 27 minutes ago, at 10:57 UTC
Forecast valid from 19 at 12 UTC to 19 at 21 UTC
Wind 8 kt from the West/Southwest with gusts up to 17 kt
Visibility: 6000 m
Broken clouds at a height of 1200 ft
Broken clouds at a height of 2500 ft
Temporary
from 19 at 12 UTC to 19 at 21 UTC
Wind 12 kt from the West/Southwest with gusts up to 21 kt
Visibility: 3100 m
Broken clouds at a height of 1100 ft
Broken clouds at a height of 2500 ft, Cumulonimbus.
light rain showers

TAF: ULOO 191057Z 1912/1921 24004G09MPS 6000 BKN012 BKN025 TEMPO 1912/1921 25006G11MPS 3100 -SHRA BKN011 BKN025CB

Weather observations and forecasts of more than 4000 airports (METAR and TAF reports).

The available stations are represented by yellow and red dots on the map.

Hover mouse over dot to see the name of the station.

Then click to see weather observations and forecasts.

To change the map : click on the green buttons with a black cross to zoom in, on the green button with a dash to zoom out, or on the green arrows for adjacent maps.


METAR-TAF: